createdAt,value
2022-09-23T00:00:16.055Z,11.48
2022-09-23T00:03:00.931Z,11.53
2022-09-23T00:05:46.039Z,11.55
2022-09-23T00:08:30.826Z,11.56
2022-09-23T00:11:15.575Z,11.52
2022-09-23T00:14:00.367Z,11.48
2022-09-23T00:16:45.286Z,11.47
2022-09-23T00:19:30.345Z,11.42
2022-09-23T00:22:15.195Z,11.40
2022-09-23T00:24:59.999Z,11.41
2022-09-23T00:27:44.782Z,11.37
2022-09-23T00:30:29.558Z,11.34
2022-09-23T00:33:14.377Z,11.31
2022-09-23T00:35:59.244Z,11.29
2022-09-23T00:38:43.937Z,11.26
2022-09-23T00:41:28.935Z,11.22
2022-09-23T00:44:13.630Z,11.21
2022-09-23T00:46:58.332Z,11.19
2022-09-23T00:49:42.995Z,11.17
2022-09-23T00:52:27.762Z,11.11
2022-09-23T00:55:12.546Z,11.11
2022-09-23T00:57:57.287Z,11.11
2022-09-23T01:00:41.941Z,11.11
2022-09-23T01:03:26.621Z,11.09
2022-09-23T01:06:11.274Z,11.08
2022-09-23T01:08:56.047Z,11.08
2022-09-23T01:11:40.949Z,11.04
2022-09-23T01:14:25.564Z,11.05
2022-09-23T01:17:10.520Z,11.09
2022-09-23T01:19:55.273Z,11.08
2022-09-23T01:22:39.965Z,11.04
2022-09-23T01:25:24.702Z,11.00
2022-09-23T01:28:09.545Z,10.96
2022-09-23T01:30:54.325Z,10.94
2022-09-23T01:33:39.153Z,10.94
2022-09-23T01:36:24.051Z,10.96
2022-09-23T01:39:08.681Z,10.95
2022-09-23T01:41:53.733Z,10.98
2022-09-23T01:44:38.437Z,11.01
2022-09-23T01:47:23.376Z,11.01
2022-09-23T01:50:08.133Z,11.01
2022-09-23T01:52:52.861Z,10.98
2022-09-23T01:55:37.592Z,10.97
2022-09-23T01:58:22.327Z,10.92
2022-09-23T02:01:07.313Z,10.90
2022-09-23T02:03:52.428Z,10.88
2022-09-23T02:06:37.228Z,10.89
2022-09-23T02:09:21.875Z,10.88
2022-09-23T02:12:06.729Z,10.85
2022-09-23T02:14:51.402Z,10.86
2022-09-23T02:17:36.247Z,10.84
2022-09-23T02:20:20.992Z,10.80
2022-09-23T02:23:05.665Z,10.82
2022-09-23T02:25:50.535Z,10.81
2022-09-23T02:28:35.260Z,10.83
2022-09-23T02:31:20.112Z,10.80
2022-09-23T02:34:05.208Z,10.77
2022-09-23T02:36:49.947Z,10.71
2022-09-23T02:39:34.671Z,10.69
2022-09-23T02:42:19.450Z,10.70
2022-09-23T02:45:04.114Z,10.73
2022-09-23T02:47:49.045Z,10.68
2022-09-23T02:50:33.758Z,10.64
2022-09-23T02:53:18.767Z,10.63
2022-09-23T02:56:03.539Z,10.64
2022-09-23T02:58:48.310Z,10.63
2022-09-23T03:01:33.105Z,10.61
2022-09-23T03:04:17.837Z,10.59
2022-09-23T03:07:02.685Z,10.59
2022-09-23T03:09:47.598Z,10.55
2022-09-23T03:12:32.510Z,10.50
2022-09-23T03:15:17.300Z,10.46
2022-09-23T03:18:02.067Z,10.52
2022-09-23T03:20:46.876Z,10.57
2022-09-23T03:23:31.734Z,10.63
2022-09-23T03:26:16.590Z,10.55
2022-09-23T03:29:01.392Z,10.54
2022-09-23T03:31:46.267Z,10.54
2022-09-23T03:34:31.544Z,10.55
2022-09-23T03:37:16.517Z,10.50
2022-09-23T03:40:01.278Z,10.49
2022-09-23T03:42:46.054Z,10.52
2022-09-23T03:45:31.000Z,10.52
2022-09-23T03:48:16.260Z,10.56
2022-09-23T03:51:00.960Z,10.53
2022-09-23T03:53:45.751Z,10.55
2022-09-23T03:56:30.577Z,10.48
2022-09-23T03:59:15.358Z,10.48
2022-09-23T04:02:01.476Z,10.45
2022-09-23T04:04:46.066Z,10.45
2022-09-23T04:07:30.845Z,10.44
2022-09-23T04:10:15.560Z,10.43
2022-09-23T04:13:00.380Z,10.39
2022-09-23T04:15:45.194Z,10.37
2022-09-23T04:18:30.106Z,10.36
2022-09-23T04:21:14.906Z,10.33
2022-09-23T04:23:59.520Z,10.32
2022-09-23T04:26:44.364Z,10.35
2022-09-23T04:29:29.074Z,10.38
2022-09-23T04:32:13.838Z,10.39
2022-09-23T04:34:58.581Z,10.39
2022-09-23T04:37:43.496Z,10.39
2022-09-23T04:40:28.384Z,10.43
2022-09-23T04:43:13.678Z,10.44
2022-09-23T04:45:58.308Z,10.48
2022-09-23T04:48:43.047Z,10.49
2022-09-23T04:51:27.885Z,10.47
2022-09-23T04:54:12.488Z,10.47
2022-09-23T04:56:57.294Z,10.45
2022-09-23T04:59:42.069Z,10.42
2022-09-23T05:02:27.079Z,10.45
2022-09-23T05:05:11.766Z,10.44
2022-09-23T05:07:56.504Z,10.46
2022-09-23T05:10:41.289Z,10.48
2022-09-23T05:13:26.388Z,10.51
2022-09-23T05:16:11.250Z,10.56
2022-09-23T05:18:55.984Z,10.49
2022-09-23T05:21:40.891Z,10.44
2022-09-23T05:24:25.621Z,10.47
2022-09-23T05:27:10.388Z,10.53
2022-09-23T05:29:55.147Z,10.44
2022-09-23T05:32:39.961Z,10.47
2022-09-23T05:35:24.645Z,10.50
2022-09-23T05:38:09.453Z,10.54
2022-09-23T05:40:54.183Z,10.60
2022-09-23T05:43:38.888Z,10.63
2022-09-23T05:46:23.771Z,10.70
2022-09-23T05:49:08.502Z,10.78
2022-09-23T05:51:53.876Z,10.84
2022-09-23T05:54:38.607Z,10.93
2022-09-23T05:57:23.325Z,11.00
2022-09-23T06:00:08.125Z,11.03
2022-09-23T06:02:52.884Z,11.07
2022-09-23T06:05:37.494Z,11.12
2022-09-23T06:08:22.297Z,11.15
2022-09-23T06:11:07.131Z,11.20
2022-09-23T06:13:51.814Z,11.24
2022-09-23T06:16:36.717Z,11.23
2022-09-23T06:19:21.819Z,11.30
2022-09-23T06:22:06.575Z,11.34
2022-09-23T06:24:51.200Z,11.38
2022-09-23T06:27:35.910Z,11.48
2022-09-23T06:30:20.577Z,11.54
2022-09-23T06:33:05.274Z,11.65
2022-09-23T06:35:57.619Z,11.95
2022-09-23T06:38:44.351Z,15.04
2022-09-23T06:41:29.143Z,16.93
2022-09-23T06:44:13.915Z,17.86
2022-09-23T06:46:58.571Z,19.09
2022-09-23T06:49:43.264Z,19.86
2022-09-23T06:52:27.921Z,20.41
2022-09-23T06:55:12.570Z,21.26
2022-09-23T06:57:57.200Z,21.98
2022-09-23T07:00:41.890Z,23.10
2022-09-23T07:03:26.552Z,23.82
2022-09-23T07:06:11.229Z,24.38
2022-09-23T07:08:55.908Z,24.60
2022-09-23T07:11:40.654Z,24.60
2022-09-23T07:14:25.382Z,24.58
2022-09-23T07:17:09.948Z,24.40
2022-09-23T07:19:54.874Z,23.43
2022-09-23T07:22:39.631Z,22.75
2022-09-23T07:25:24.156Z,21.31
2022-09-23T07:28:08.933Z,19.91
2022-09-23T07:31:00.105Z,19.21
2022-09-23T07:33:45.773Z,18.70
2022-09-23T07:36:30.464Z,18.37
2022-09-23T07:39:15.271Z,18.03
2022-09-23T07:41:59.988Z,17.84
2022-09-23T07:44:44.681Z,17.45
2022-09-23T07:47:29.464Z,17.39
2022-09-23T07:50:14.100Z,17.27
2022-09-23T07:52:59.031Z,17.20
2022-09-23T07:55:43.733Z,17.27
2022-09-23T07:58:28.505Z,17.30
2022-09-23T08:01:13.286Z,17.35
2022-09-23T08:03:57.923Z,17.36
2022-09-23T08:06:42.604Z,17.39
2022-09-23T08:09:27.513Z,17.27
2022-09-23T08:12:15.950Z,17.24
2022-09-23T08:15:00.983Z,17.11
2022-09-23T08:17:45.833Z,17.06
2022-09-23T08:20:30.543Z,17.10
2022-09-23T08:23:15.423Z,17.15
2022-09-23T08:26:00.217Z,17.23
2022-09-23T08:28:44.960Z,17.23
2022-09-23T08:31:29.641Z,16.90
2022-09-23T08:34:14.382Z,16.84
2022-09-23T08:36:59.245Z,16.94
2022-09-23T08:39:44.021Z,16.83
2022-09-23T08:42:28.807Z,16.70
2022-09-23T08:45:13.483Z,16.50
2022-09-23T08:47:58.339Z,16.50
2022-09-23T08:50:43.009Z,16.56
2022-09-23T08:53:27.984Z,16.56
2022-09-23T08:56:12.790Z,16.61
2022-09-23T08:58:57.720Z,16.64
2022-09-23T09:01:42.669Z,16.72
2022-09-23T09:04:27.883Z,16.79
2022-09-23T09:07:35.292Z,16.55
2022-09-23T09:10:17.661Z,16.50
2022-09-23T09:13:02.373Z,16.63
2022-09-23T09:15:47.287Z,16.95
2022-09-23T09:18:31.845Z,17.16
2022-09-23T09:21:16.653Z,17.37
2022-09-23T09:24:01.421Z,17.41
2022-09-23T09:26:46.334Z,17.43
2022-09-23T09:29:35.297Z,17.10
2022-09-23T09:32:21.296Z,17.19
2022-09-23T09:35:06.035Z,17.11
2022-09-23T09:37:53.515Z,17.13
2022-09-23T09:40:38.754Z,17.14
2022-09-23T09:43:23.741Z,17.27
2022-09-23T09:46:09.082Z,17.33
2022-09-23T09:48:54.325Z,17.45
2022-09-23T09:51:38.931Z,17.50
2022-09-23T09:54:23.786Z,17.66
2022-09-23T09:57:08.518Z,17.74
2022-09-23T09:59:53.197Z,17.96
2022-09-23T10:02:38.043Z,18.22
2022-09-23T10:05:22.710Z,18.45
2022-09-23T10:08:07.549Z,18.46
2022-09-23T10:10:52.465Z,18.58
2022-09-23T10:13:37.524Z,18.67
2022-09-23T10:16:22.404Z,18.78
2022-09-23T10:19:07.351Z,18.87
2022-09-23T10:21:52.454Z,18.69
2022-09-23T10:24:37.207Z,18.07
2022-09-23T10:27:21.999Z,18.14
2022-09-23T10:30:06.815Z,18.00
2022-09-23T10:32:51.554Z,17.96
2022-09-23T10:35:36.217Z,18.13
2022-09-23T10:38:20.956Z,17.99
2022-09-23T10:41:05.648Z,17.89
2022-09-23T10:43:50.978Z,18.06
2022-09-23T10:46:35.742Z,18.13
2022-09-23T10:49:20.339Z,18.06
2022-09-23T10:52:05.053Z,18.18
2022-09-23T10:54:49.949Z,18.26
2022-09-23T10:57:34.721Z,18.39
2022-09-23T11:00:19.494Z,18.55
2022-09-23T11:03:04.351Z,18.57
2022-09-23T11:05:49.171Z,18.71
2022-09-23T11:08:33.967Z,18.56
2022-09-23T11:11:18.756Z,18.54
2022-09-23T11:14:03.606Z,18.63
2022-09-23T11:16:48.335Z,18.81
2022-09-23T11:19:33.065Z,18.75
2022-09-23T11:22:17.614Z,18.78
2022-09-23T11:25:02.424Z,18.77
2022-09-23T11:27:47.160Z,18.83
2022-09-23T11:30:31.865Z,18.61
2022-09-23T11:33:16.744Z,18.34
2022-09-23T11:36:01.421Z,18.44
2022-09-23T11:38:46.218Z,18.40
2022-09-23T11:41:30.922Z,18.15
2022-09-23T11:44:15.725Z,17.93
2022-09-23T11:47:00.409Z,18.02
2022-09-23T11:49:45.163Z,18.30
2022-09-23T11:52:29.896Z,18.48
2022-09-23T11:55:22.244Z,18.73
2022-09-23T11:58:17.592Z,18.86
2022-09-23T12:01:06.552Z,18.88
2022-09-23T12:03:51.352Z,18.97
2022-09-23T12:06:36.487Z,18.95
2022-09-23T12:09:35.725Z,19.01
2022-09-23T12:12:27.255Z,19.22
2022-09-23T12:15:12.500Z,19.17
2022-09-23T12:17:57.513Z,19.26
2022-09-23T12:20:42.823Z,19.53
2022-09-23T12:23:27.552Z,19.42
2022-09-23T12:26:12.244Z,19.40
2022-09-23T12:28:56.866Z,19.56
2022-09-23T12:31:43.076Z,19.57
2022-09-23T12:34:29.042Z,19.67
2022-09-23T12:37:13.669Z,19.66
2022-09-23T12:39:58.552Z,19.39
2022-09-23T12:42:43.267Z,19.30
2022-09-23T12:45:28.034Z,19.26
2022-09-23T12:48:12.748Z,19.26
2022-09-23T12:50:57.496Z,19.17
2022-09-23T12:53:42.175Z,19.17
2022-09-23T12:56:27.144Z,19.32
2022-09-23T12:59:12.354Z,19.35
2022-09-23T13:01:57.111Z,19.43
2022-09-23T13:04:42.410Z,19.47
2022-09-23T13:07:27.202Z,19.62
2022-09-23T13:10:11.814Z,19.71
2022-09-23T13:12:56.491Z,19.88
2022-09-23T13:15:41.374Z,19.90
2022-09-23T13:18:26.127Z,20.05
2022-09-23T13:21:10.985Z,20.15
2022-09-23T13:23:55.845Z,20.24
2022-09-23T13:26:40.465Z,20.22
2022-09-23T13:29:25.960Z,20.03
2022-09-23T13:32:10.784Z,19.90
2022-09-23T13:34:55.530Z,19.85
2022-09-23T13:37:40.198Z,19.84
2022-09-23T13:40:25.289Z,19.79
2022-09-23T13:43:10.260Z,19.85
2022-09-23T13:45:55.089Z,19.99
2022-09-23T13:48:39.590Z,20.01
2022-09-23T13:51:24.346Z,20.05
2022-09-23T13:54:09.116Z,20.16
2022-09-23T13:56:53.796Z,20.24
2022-09-23T13:59:38.746Z,20.32
2022-09-23T14:02:23.408Z,20.17
2022-09-23T14:05:08.303Z,20.07
2022-09-23T14:07:53.011Z,20.02
2022-09-23T14:10:37.848Z,20.00
2022-09-23T14:13:25.682Z,20.17
2022-09-23T14:16:11.150Z,20.32
2022-09-23T14:18:55.926Z,20.54
2022-09-23T14:21:40.651Z,20.63
2022-09-23T14:24:25.452Z,20.51
2022-09-23T14:27:10.036Z,20.33
2022-09-23T14:29:54.859Z,20.29
2022-09-23T14:32:39.552Z,20.45
2022-09-23T14:35:24.451Z,20.51
2022-09-23T14:38:09.158Z,20.55
2022-09-23T14:40:54.112Z,20.51
2022-09-23T14:43:38.874Z,20.49
2022-09-23T14:46:23.674Z,20.49
2022-09-23T14:49:08.454Z,20.51
2022-09-23T14:51:53.454Z,20.45
2022-09-23T14:54:38.300Z,20.42
2022-09-23T14:57:23.007Z,20.34
2022-09-23T15:00:07.788Z,20.29
2022-09-23T15:02:52.558Z,20.25
2022-09-23T15:05:37.493Z,20.26
2022-09-23T15:08:22.264Z,20.24
2022-09-23T15:11:08.305Z,20.24
2022-09-23T15:13:53.407Z,20.27
2022-09-23T15:16:38.157Z,20.27
2022-09-23T15:19:22.975Z,20.16
2022-09-23T15:22:07.560Z,20.05
2022-09-23T15:24:52.357Z,19.93
2022-09-23T15:27:36.959Z,19.78
2022-09-23T15:30:21.922Z,19.79
2022-09-23T15:33:06.732Z,19.82
2022-09-23T15:35:51.488Z,19.89
2022-09-23T15:38:36.375Z,19.91
2022-09-23T15:41:21.039Z,19.94
2022-09-23T15:44:05.889Z,19.95
2022-09-23T15:46:50.565Z,19.87
2022-09-23T15:49:35.359Z,19.79
2022-09-23T15:52:20.048Z,19.72
2022-09-23T15:55:04.809Z,19.65
2022-09-23T15:57:49.429Z,19.51
2022-09-23T16:00:34.292Z,19.41
2022-09-23T16:03:19.346Z,19.38
2022-09-23T16:06:04.074Z,19.26
2022-09-23T16:08:48.954Z,19.11
2022-09-23T16:11:33.613Z,19.11
2022-09-23T16:14:18.441Z,19.14
2022-09-23T16:17:03.084Z,19.11
2022-09-23T16:19:47.807Z,19.10
2022-09-23T16:22:32.655Z,19.09
2022-09-23T16:25:17.336Z,18.93
2022-09-23T16:28:02.165Z,18.80
2022-09-23T16:30:46.986Z,18.64
2022-09-23T16:33:31.808Z,18.56
2022-09-23T16:36:16.474Z,18.47
2022-09-23T16:39:01.297Z,18.46
2022-09-23T16:41:45.917Z,18.43
2022-09-23T16:44:30.847Z,18.38
2022-09-23T16:47:15.465Z,18.36
2022-09-23T16:50:00.144Z,18.31
2022-09-23T16:52:44.788Z,18.33
2022-09-23T16:55:29.720Z,18.28
2022-09-23T16:58:14.362Z,18.25
2022-09-23T17:00:59.139Z,18.23
2022-09-23T17:03:43.808Z,18.21
2022-09-23T17:06:28.564Z,18.16
2022-09-23T17:09:13.283Z,18.10
2022-09-23T17:11:58.028Z,18.01
2022-09-23T17:14:42.846Z,17.93
2022-09-23T17:17:27.516Z,17.85
2022-09-23T17:20:12.359Z,17.74
2022-09-23T17:22:57.015Z,17.63
2022-09-23T17:25:41.804Z,17.53
2022-09-23T17:28:26.482Z,17.50
2022-09-23T17:31:11.314Z,17.45
2022-09-23T17:33:55.979Z,17.51
2022-09-23T17:36:40.727Z,17.43
2022-09-23T17:39:25.562Z,17.33
2022-09-23T17:42:10.353Z,17.25
2022-09-23T17:44:55.215Z,17.16
2022-09-23T17:47:41.928Z,17.11
2022-09-23T17:50:26.765Z,17.16
2022-09-23T17:53:11.339Z,17.02
2022-09-23T17:55:56.103Z,16.93
2022-09-23T17:58:40.763Z,16.85
2022-09-23T18:01:25.514Z,16.76
2022-09-23T18:04:10.599Z,16.70
2022-09-23T18:06:55.368Z,16.70
2022-09-23T18:09:40.148Z,16.71
2022-09-23T18:12:24.828Z,16.72
2022-09-23T18:15:09.621Z,16.68
2022-09-23T18:17:54.331Z,16.63
2022-09-23T18:20:39.053Z,16.54
2022-09-23T18:23:26.094Z,16.48
2022-09-23T18:26:11.018Z,16.41
2022-09-23T18:28:55.774Z,16.33
2022-09-23T18:31:40.548Z,16.28
2022-09-23T18:34:25.315Z,16.24
2022-09-23T18:37:15.609Z,16.17
2022-09-23T18:40:01.009Z,16.12
2022-09-23T18:42:45.831Z,16.08
2022-09-23T18:45:30.522Z,16.05
2022-09-23T18:48:15.238Z,16.02
2022-09-23T18:50:59.921Z,16.02
2022-09-23T18:53:45.128Z,15.97
2022-09-23T18:56:30.258Z,15.92
2022-09-23T18:59:15.247Z,15.89
2022-09-23T19:02:00.042Z,15.86
2022-09-23T19:04:45.181Z,15.84
2022-09-23T19:07:29.990Z,15.91
2022-09-23T19:10:14.754Z,15.87
2022-09-23T19:12:59.492Z,15.80
2022-09-23T19:15:44.229Z,15.78
2022-09-23T19:18:28.965Z,15.77
2022-09-23T19:21:13.674Z,15.75
2022-09-23T19:23:58.461Z,15.73
2022-09-23T19:26:43.380Z,15.73
2022-09-23T19:29:28.170Z,15.76
2022-09-23T19:32:12.906Z,15.76
2022-09-23T19:34:57.677Z,15.73
2022-09-23T19:37:42.376Z,15.70
2022-09-23T19:40:27.082Z,15.74
2022-09-23T19:43:11.937Z,15.70
2022-09-23T19:45:56.586Z,15.71
2022-09-23T19:48:41.374Z,15.79
2022-09-23T19:51:26.213Z,15.77
2022-09-23T19:54:11.006Z,15.76
2022-09-23T19:56:55.705Z,15.72
2022-09-23T19:59:40.339Z,15.69
2022-09-23T20:02:25.382Z,15.64
2022-09-23T20:05:12.142Z,15.62
2022-09-23T20:07:57.420Z,15.59
2022-09-23T20:10:42.834Z,15.56
2022-09-23T20:13:27.695Z,15.57
2022-09-23T20:16:12.523Z,15.59
2022-09-23T20:18:57.077Z,15.62
2022-09-23T20:21:41.976Z,15.63
2022-09-23T20:24:26.738Z,15.60
2022-09-23T20:27:11.539Z,15.62
2022-09-23T20:29:56.182Z,15.56
2022-09-23T20:32:44.615Z,15.56
2022-09-23T20:35:30.048Z,15.58
2022-09-23T20:38:14.811Z,15.60
2022-09-23T20:40:59.567Z,15.54
2022-09-23T20:43:44.184Z,15.50
2022-09-23T20:46:29.070Z,15.48
2022-09-23T20:49:14.280Z,15.41
2022-09-23T20:51:59.054Z,15.31
2022-09-23T20:54:43.815Z,15.27
2022-09-23T20:57:28.490Z,15.26
2022-09-23T21:00:13.335Z,15.19
2022-09-23T21:02:58.190Z,15.17
2022-09-23T21:05:42.979Z,15.12
2022-09-23T21:08:27.791Z,15.12
2022-09-23T21:11:12.695Z,15.04
2022-09-23T21:13:57.306Z,14.97
2022-09-23T21:16:42.183Z,15.02
2022-09-23T21:19:26.849Z,15.03
2022-09-23T21:22:11.707Z,15.05
2022-09-23T21:28:01.253Z,15.00
2022-09-23T21:30:51.109Z,14.96
2022-09-23T21:33:36.533Z,14.88
2022-09-23T21:36:21.312Z,14.79
2022-09-23T21:39:05.990Z,14.80
2022-09-23T21:41:50.755Z,14.75
2022-09-23T21:44:35.607Z,14.69
2022-09-23T21:47:20.485Z,14.67
2022-09-23T21:50:05.195Z,14.67
2022-09-23T21:52:49.906Z,14.67
2022-09-23T21:55:34.702Z,14.65
2022-09-23T21:58:19.527Z,14.61
2022-09-23T22:01:04.287Z,14.63
2022-09-23T22:03:48.941Z,14.61
2022-09-23T22:06:33.574Z,14.59
2022-09-23T22:09:18.293Z,14.58
2022-09-23T22:12:02.997Z,14.56
2022-09-23T22:14:47.697Z,14.51
2022-09-23T22:17:32.546Z,14.48
2022-09-23T22:20:17.247Z,14.44
2022-09-23T22:23:02.140Z,14.38
2022-09-23T22:25:46.720Z,14.44
2022-09-23T22:28:31.657Z,14.42
2022-09-23T22:31:16.470Z,14.47
2022-09-23T22:34:01.913Z,14.48
2022-09-23T22:36:46.542Z,14.45
2022-09-23T22:39:31.624Z,14.45
2022-09-23T22:42:16.547Z,14.41
2022-09-23T22:45:01.162Z,14.40
2022-09-23T22:47:46.154Z,14.43
2022-09-23T22:50:31.344Z,14.43
2022-09-23T22:53:16.221Z,14.44
2022-09-23T22:56:01.061Z,14.38
2022-09-23T22:58:45.725Z,14.36
2022-09-23T23:01:30.752Z,14.34
2022-09-23T23:04:15.929Z,14.33
2022-09-23T23:07:00.667Z,14.27
2022-09-23T23:09:45.455Z,14.24
2022-09-23T23:12:30.247Z,14.19
2022-09-23T23:15:14.897Z,14.16
2022-09-23T23:17:59.780Z,14.11
2022-09-23T23:20:44.431Z,14.04
2022-09-23T23:23:29.274Z,14.06
2022-09-23T23:26:13.879Z,14.05
2022-09-23T23:28:58.598Z,14.04
2022-09-23T23:31:43.279Z,14.06
2022-09-23T23:34:28.192Z,14.04
2022-09-23T23:37:13.923Z,14.01
2022-09-23T23:40:00.846Z,14.00
2022-09-23T23:42:45.636Z,13.98
2022-09-23T23:45:30.432Z,13.99
2022-09-23T23:48:15.341Z,13.97
2022-09-23T23:51:00.163Z,13.99
2022-09-23T23:53:44.932Z,13.94
2022-09-23T23:56:29.712Z,13.93
2022-09-23T23:59:14.496Z,13.90
